sensor_id;sensor_type;location;lat;lon;timestamp;P1;durP1;ratioP1;P2;durP2;ratioP2
21843;SDS011;11084;52.482;9.108;2022-12-10T00:01:32;37.87;;;11.43;;
21843;SDS011;11084;52.482;9.108;2022-12-10T00:04:00;72.67;;;11.53;;
21843;SDS011;11084;52.482;9.108;2022-12-10T00:06:27;38.47;;;11.10;;
21843;SDS011;11084;52.482;9.108;2022-12-10T00:08:55;63.63;;;12.03;;
21843;SDS011;11084;52.482;9.108;2022-12-10T00:11:22;48.70;;;11.30;;
21843;SDS011;11084;52.482;9.108;2022-12-10T00:13:48;32.07;;;12.40;;
21843;SDS011;11084;52.482;9.108;2022-12-10T00:16:17;48.80;;;12.10;;
21843;SDS011;11084;52.482;9.108;2022-12-10T00:18:45;31.23;;;10.47;;
21843;SDS011;11084;52.482;9.108;2022-12-10T00:21:13;54.37;;;12.73;;
21843;SDS011;11084;52.482;9.108;2022-12-10T00:23:45;33.77;;;11.33;;
21843;SDS011;11084;52.482;9.108;2022-12-10T00:26:13;38.30;;;10.97;;
21843;SDS011;11084;52.482;9.108;2022-12-10T00:28:41;51.33;;;11.93;;
21843;SDS011;11084;52.482;9.108;2022-12-10T00:31:09;64.07;;;13.47;;
21843;SDS011;11084;52.482;9.108;2022-12-10T00:33:38;45.20;;;12.37;;
21843;SDS011;11084;52.482;9.108;2022-12-10T00:36:06;43.97;;;12.60;;
21843;SDS011;11084;52.482;9.108;2022-12-10T00:38:36;37.33;;;13.37;;
21843;SDS011;11084;52.482;9.108;2022-12-10T00:41:03;74.47;;;12.90;;
21843;SDS011;11084;52.482;9.108;2022-12-10T00:43:31;39.70;;;11.97;;
21843;SDS011;11084;52.482;9.108;2022-12-10T00:45:58;43.33;;;14.40;;
21843;SDS011;11084;52.482;9.108;2022-12-10T00:48:24;40.60;;;12.43;;
21843;SDS011;11084;52.482;9.108;2022-12-10T00:51:00;39.37;;;14.53;;
21843;SDS011;11084;52.482;9.108;2022-12-10T00:53:30;49.20;;;14.40;;
21843;SDS011;11084;52.482;9.108;2022-12-10T00:55:58;42.83;;;12.80;;
21843;SDS011;11084;52.482;9.108;2022-12-10T00:58:28;51.77;;;13.33;;
21843;SDS011;11084;52.482;9.108;2022-12-10T01:01:09;38.47;;;13.20;;
21843;SDS011;11084;52.482;9.108;2022-12-10T01:03:40;46.07;;;15.07;;
21843;SDS011;11084;52.482;9.108;2022-12-10T01:06:24;57.77;;;13.73;;
21843;SDS011;11084;52.482;9.108;2022-12-10T01:09:18;77.07;;;14.57;;
21843;SDS011;11084;52.482;9.108;2022-12-10T01:11:52;47.63;;;13.67;;
21843;SDS011;11084;52.482;9.108;2022-12-10T01:14:25;101.13;;;15.23;;
21843;SDS011;11084;52.482;9.108;2022-12-10T01:16:55;61.40;;;15.03;;
21843;SDS011;11084;52.482;9.108;2022-12-10T01:19:23;85.27;;;12.77;;
21843;SDS011;11084;52.482;9.108;2022-12-10T01:21:53;78.47;;;13.40;;
21843;SDS011;11084;52.482;9.108;2022-12-10T01:24:21;61.27;;;12.97;;
21843;SDS011;11084;52.482;9.108;2022-12-10T01:26:49;41.40;;;13.37;;
21843;SDS011;11084;52.482;9.108;2022-12-10T01:29:16;63.33;;;15.17;;
21843;SDS011;11084;52.482;9.108;2022-12-10T01:31:42;52.13;;;14.60;;
21843;SDS011;11084;52.482;9.108;2022-12-10T01:34:13;58.70;;;14.50;;
21843;SDS011;11084;52.482;9.108;2022-12-10T01:36:41;52.23;;;14.27;;
21843;SDS011;11084;52.482;9.108;2022-12-10T01:39:11;70.07;;;14.60;;
21843;SDS011;11084;52.482;9.108;2022-12-10T01:41:47;61.80;;;13.10;;
21843;SDS011;11084;52.482;9.108;2022-12-10T01:46:47;81.83;;;15.50;;
21843;SDS011;11084;52.482;9.108;2022-12-10T01:51:57;63.03;;;13.20;;
21843;SDS011;11084;52.482;9.108;2022-12-10T01:54:37;49.97;;;14.53;;
21843;SDS011;11084;52.482;9.108;2022-12-10T01:57:18;65.07;;;14.37;;
21843;SDS011;11084;52.482;9.108;2022-12-10T01:59:51;53.10;;;15.03;;
21843;SDS011;11084;52.482;9.108;2022-12-10T02:02:38;74.17;;;16.30;;
21843;SDS011;11084;52.482;9.108;2022-12-10T02:05:58;52.77;;;14.97;;
21843;SDS011;11084;52.482;9.108;2022-12-10T02:08:27;66.00;;;14.30;;
21843;SDS011;11084;52.482;9.108;2022-12-10T02:14:07;53.13;;;14.10;;
21843;SDS011;11084;52.482;9.108;2022-12-10T02:17:05;40.40;;;13.17;;
21843;SDS011;11084;52.482;9.108;2022-12-10T02:22:21;69.43;;;16.33;;
21843;SDS011;11084;52.482;9.108;2022-12-10T02:24:52;54.20;;;15.00;;
21843;SDS011;11084;52.482;9.108;2022-12-10T02:27:31;44.63;;;14.30;;
21843;SDS011;11084;52.482;9.108;2022-12-10T02:30:45;47.43;;;14.50;;
21843;SDS011;11084;52.482;9.108;2022-12-10T02:33:14;64.40;;;15.50;;
21843;SDS011;11084;52.482;9.108;2022-12-10T02:35:43;55.63;;;15.90;;
21843;SDS011;11084;52.482;9.108;2022-12-10T02:38:20;54.10;;;15.87;;
21843;SDS011;11084;52.482;9.108;2022-12-10T02:40:57;54.10;;;14.80;;
21843;SDS011;11084;52.482;9.108;2022-12-10T02:43:28;56.83;;;14.97;;
21843;SDS011;11084;52.482;9.108;2022-12-10T02:45:56;54.13;;;17.77;;
21843;SDS011;11084;52.482;9.108;2022-12-10T02:48:26;59.37;;;16.80;;
21843;SDS011;11084;52.482;9.108;2022-12-10T02:50:52;60.90;;;14.80;;
21843;SDS011;11084;52.482;9.108;2022-12-10T02:53:18;53.37;;;15.97;;
21843;SDS011;11084;52.482;9.108;2022-12-10T02:55:53;50.57;;;15.70;;
21843;SDS011;11084;52.482;9.108;2022-12-10T03:02:02;47.80;;;12.90;;
21843;SDS011;11084;52.482;9.108;2022-12-10T03:05:13;42.83;;;12.97;;
21843;SDS011;11084;52.482;9.108;2022-12-10T03:13:29;46.03;;;12.80;;
21843;SDS011;11084;52.482;9.108;2022-12-10T03:16:05;41.17;;;11.93;;
21843;SDS011;11084;52.482;9.108;2022-12-10T03:18:32;37.47;;;12.93;;
21843;SDS011;11084;52.482;9.108;2022-12-10T03:21:01;44.93;;;13.20;;
21843;SDS011;11084;52.482;9.108;2022-12-10T03:23:32;50.80;;;14.10;;
21843;SDS011;11084;52.482;9.108;2022-12-10T03:26:01;51.70;;;15.03;;
21843;SDS011;11084;52.482;9.108;2022-12-10T03:28:30;47.97;;;14.13;;
21843;SDS011;11084;52.482;9.108;2022-12-10T03:31:02;45.43;;;13.07;;
21843;SDS011;11084;52.482;9.108;2022-12-10T03:33:29;53.37;;;12.70;;
21843;SDS011;11084;52.482;9.108;2022-12-10T03:35:56;48.43;;;15.23;;
21843;SDS011;11084;52.482;9.108;2022-12-10T03:38:22;44.57;;;12.13;;
21843;SDS011;11084;52.482;9.108;2022-12-10T03:40:48;47.70;;;13.73;;
21843;SDS011;11084;52.482;9.108;2022-12-10T03:43:14;38.20;;;12.37;;
21843;SDS011;11084;52.482;9.108;2022-12-10T03:45:40;48.50;;;13.57;;
21843;SDS011;11084;52.482;9.108;2022-12-10T03:48:06;53.13;;;15.03;;
21843;SDS011;11084;52.482;9.108;2022-12-10T03:50:32;44.53;;;14.00;;
21843;SDS011;11084;52.482;9.108;2022-12-10T03:52:58;46.17;;;14.90;;
21843;SDS011;11084;52.482;9.108;2022-12-10T03:55:24;44.83;;;12.60;;
21843;SDS011;11084;52.482;9.108;2022-12-10T03:57:50;41.23;;;14.30;;
21843;SDS011;11084;52.482;9.108;2022-12-10T04:00:16;42.87;;;13.17;;
21843;SDS011;11084;52.482;9.108;2022-12-10T04:02:42;44.73;;;14.70;;
21843;SDS011;11084;52.482;9.108;2022-12-10T04:05:08;41.63;;;13.00;;
21843;SDS011;11084;52.482;9.108;2022-12-10T04:07:35;39.93;;;14.57;;
21843;SDS011;11084;52.482;9.108;2022-12-10T04:10:02;48.30;;;12.87;;
21843;SDS011;11084;52.482;9.108;2022-12-10T04:12:29;32.00;;;10.60;;
21843;SDS011;11084;52.482;9.108;2022-12-10T04:14:55;49.47;;;13.93;;
21843;SDS011;11084;52.482;9.108;2022-12-10T04:17:41;41.20;;;13.97;;
21843;SDS011;11084;52.482;9.108;2022-12-10T04:20:07;39.10;;;13.80;;
21843;SDS011;11084;52.482;9.108;2022-12-10T04:22:56;40.00;;;14.83;;
21843;SDS011;11084;52.482;9.108;2022-12-10T04:25:42;48.17;;;14.40;;
21843;SDS011;11084;52.482;9.108;2022-12-10T04:28:28;52.47;;;14.03;;
21843;SDS011;11084;52.482;9.108;2022-12-10T04:30:54;54.57;;;15.97;;
21843;SDS011;11084;52.482;9.108;2022-12-10T04:33:20;48.30;;;14.97;;
21843;SDS011;11084;52.482;9.108;2022-12-10T04:35:46;40.93;;;14.40;;
21843;SDS011;11084;52.482;9.108;2022-12-10T04:38:12;41.70;;;14.60;;
21843;SDS011;11084;52.482;9.108;2022-12-10T04:40:38;48.80;;;14.07;;
21843;SDS011;11084;52.482;9.108;2022-12-10T04:43:04;44.33;;;12.97;;
21843;SDS011;11084;52.482;9.108;2022-12-10T04:45:30;55.17;;;14.83;;
21843;SDS011;11084;52.482;9.108;2022-12-10T04:47:59;51.87;;;14.60;;
21843;SDS011;11084;52.482;9.108;2022-12-10T04:50:25;45.73;;;14.70;;
21843;SDS011;11084;52.482;9.108;2022-12-10T04:52:51;42.97;;;13.47;;
21843;SDS011;11084;52.482;9.108;2022-12-10T04:55:19;48.47;;;15.03;;
21843;SDS011;11084;52.482;9.108;2022-12-10T04:57:45;51.83;;;15.47;;
21843;SDS011;11084;52.482;9.108;2022-12-10T05:00:11;50.27;;;14.37;;
21843;SDS011;11084;52.482;9.108;2022-12-10T05:02:37;47.87;;;13.97;;
21843;SDS011;11084;52.482;9.108;2022-12-10T05:05:04;54.67;;;15.30;;
21843;SDS011;11084;52.482;9.108;2022-12-10T05:07:32;49.87;;;16.00;;
21843;SDS011;11084;52.482;9.108;2022-12-10T05:09:58;52.90;;;13.73;;
21843;SDS011;11084;52.482;9.108;2022-12-10T05:12:24;58.20;;;15.70;;
21843;SDS011;11084;52.482;9.108;2022-12-10T05:14:50;57.30;;;15.97;;
21843;SDS011;11084;52.482;9.108;2022-12-10T05:17:16;40.77;;;14.40;;
21843;SDS011;11084;52.482;9.108;2022-12-10T05:19:42;57.73;;;14.40;;
21843;SDS011;11084;52.482;9.108;2022-12-10T05:22:08;57.87;;;15.77;;
21843;SDS011;11084;52.482;9.108;2022-12-10T05:24:52;47.27;;;15.13;;
21843;SDS011;11084;52.482;9.108;2022-12-10T05:27:18;65.53;;;16.80;;
21843;SDS011;11084;52.482;9.108;2022-12-10T05:29:45;49.17;;;15.50;;
21843;SDS011;11084;52.482;9.108;2022-12-10T05:32:10;55.10;;;15.27;;
21843;SDS011;11084;52.482;9.108;2022-12-10T05:34:36;49.30;;;14.77;;
21843;SDS011;11084;52.482;9.108;2022-12-10T05:37:02;50.20;;;15.47;;
21843;SDS011;11084;52.482;9.108;2022-12-10T05:39:28;53.97;;;15.47;;
21843;SDS011;11084;52.482;9.108;2022-12-10T05:41:54;46.47;;;15.00;;
21843;SDS011;11084;52.482;9.108;2022-12-10T05:44:20;55.97;;;15.57;;
21843;SDS011;11084;52.482;9.108;2022-12-10T05:46:46;52.67;;;16.50;;
21843;SDS011;11084;52.482;9.108;2022-12-10T05:49:12;52.83;;;15.53;;
21843;SDS011;11084;52.482;9.108;2022-12-10T05:51:38;40.83;;;13.10;;
21843;SDS011;11084;52.482;9.108;2022-12-10T05:54:05;52.87;;;14.13;;
21843;SDS011;11084;52.482;9.108;2022-12-10T05:56:32;36.87;;;14.23;;
21843;SDS011;11084;52.482;9.108;2022-12-10T05:59:00;48.97;;;14.87;;
21843;SDS011;11084;52.482;9.108;2022-12-10T06:01:30;52.23;;;14.63;;
21843;SDS011;11084;52.482;9.108;2022-12-10T06:03:59;47.33;;;14.20;;
21843;SDS011;11084;52.482;9.108;2022-12-10T06:06:27;47.23;;;13.60;;
21843;SDS011;11084;52.482;9.108;2022-12-10T06:08:57;49.40;;;13.43;;
21843;SDS011;11084;52.482;9.108;2022-12-10T06:11:26;49.60;;;13.67;;
21843;SDS011;11084;52.482;9.108;2022-12-10T06:13:54;41.00;;;15.17;;
21843;SDS011;11084;52.482;9.108;2022-12-10T06:16:25;43.77;;;13.80;;
21843;SDS011;11084;52.482;9.108;2022-12-10T06:18:53;47.83;;;13.30;;
21843;SDS011;11084;52.482;9.108;2022-12-10T06:21:20;40.53;;;13.30;;
21843;SDS011;11084;52.482;9.108;2022-12-10T06:23:47;50.80;;;13.47;;
21843;SDS011;11084;52.482;9.108;2022-12-10T06:26:23;40.23;;;13.33;;
21843;SDS011;11084;52.482;9.108;2022-12-10T06:28:55;46.47;;;13.77;;
21843;SDS011;11084;52.482;9.108;2022-12-10T06:31:22;47.03;;;15.17;;
21843;SDS011;11084;52.482;9.108;2022-12-10T06:33:48;58.17;;;13.50;;
21843;SDS011;11084;52.482;9.108;2022-12-10T06:36:18;43.50;;;12.57;;
21843;SDS011;11084;52.482;9.108;2022-12-10T06:38:45;42.87;;;13.63;;
21843;SDS011;11084;52.482;9.108;2022-12-10T06:41:13;45.40;;;13.27;;
21843;SDS011;11084;52.482;9.108;2022-12-10T06:43:41;46.77;;;13.00;;
21843;SDS011;11084;52.482;9.108;2022-12-10T06:46:07;44.10;;;12.90;;
21843;SDS011;11084;52.482;9.108;2022-12-10T06:48:36;36.63;;;11.80;;
21843;SDS011;11084;52.482;9.108;2022-12-10T06:51:06;43.90;;;14.10;;
21843;SDS011;11084;52.482;9.108;2022-12-10T06:53:33;37.90;;;12.80;;
21843;SDS011;11084;52.482;9.108;2022-12-10T06:56:02;39.50;;;12.63;;
21843;SDS011;11084;52.482;9.108;2022-12-10T06:58:30;44.17;;;13.33;;
21843;SDS011;11084;52.482;9.108;2022-12-10T07:01:18;46.13;;;13.03;;
21843;SDS011;11084;52.482;9.108;2022-12-10T07:03:47;37.80;;;12.80;;
21843;SDS011;11084;52.482;9.108;2022-12-10T07:06:15;42.43;;;12.60;;
21843;SDS011;11084;52.482;9.108;2022-12-10T07:08:40;32.43;;;10.40;;
21843;SDS011;11084;52.482;9.108;2022-12-10T07:11:08;45.90;;;12.47;;
21843;SDS011;11084;52.482;9.108;2022-12-10T07:13:37;39.60;;;13.07;;
21843;SDS011;11084;52.482;9.108;2022-12-10T07:16:11;33.17;;;12.90;;
21843;SDS011;11084;52.482;9.108;2022-12-10T07:18:46;34.57;;;11.80;;
21843;SDS011;11084;52.482;9.108;2022-12-10T07:21:23;38.73;;;12.17;;
21843;SDS011;11084;52.482;9.108;2022-12-10T07:24:00;35.17;;;11.47;;
21843;SDS011;11084;52.482;9.108;2022-12-10T07:26:38;41.97;;;12.77;;
21843;SDS011;11084;52.482;9.108;2022-12-10T07:29:07;39.83;;;13.37;;
21843;SDS011;11084;52.482;9.108;2022-12-10T07:31:39;34.53;;;11.50;;
21843;SDS011;11084;52.482;9.108;2022-12-10T07:34:05;31.23;;;12.13;;
21843;SDS011;11084;52.482;9.108;2022-12-10T07:36:31;32.47;;;10.33;;
21843;SDS011;11084;52.482;9.108;2022-12-10T07:38:58;32.70;;;11.10;;
21843;SDS011;11084;52.482;9.108;2022-12-10T07:41:24;33.90;;;11.13;;
21843;SDS011;11084;52.482;9.108;2022-12-10T07:43:51;38.57;;;11.50;;
21843;SDS011;11084;52.482;9.108;2022-12-10T07:48:49;36.77;;;12.27;;
21843;SDS011;11084;52.482;9.108;2022-12-10T07:51:16;32.57;;;11.17;;
21843;SDS011;11084;52.482;9.108;2022-12-10T07:53:44;29.73;;;11.53;;
21843;SDS011;11084;52.482;9.108;2022-12-10T07:56:10;32.03;;;10.70;;
21843;SDS011;11084;52.482;9.108;2022-12-10T07:58:36;29.40;;;9.93;;
21843;SDS011;11084;52.482;9.108;2022-12-10T08:01:09;26.27;;;11.20;;
21843;SDS011;11084;52.482;9.108;2022-12-10T08:03:38;28.00;;;10.07;;
21843;SDS011;11084;52.482;9.108;2022-12-10T08:06:06;34.57;;;11.40;;
21843;SDS011;11084;52.482;9.108;2022-12-10T08:08:40;32.07;;;10.07;;
21843;SDS011;11084;52.482;9.108;2022-12-10T08:11:08;23.23;;;9.53;;
21843;SDS011;11084;52.482;9.108;2022-12-10T08:13:35;30.23;;;10.97;;
21843;SDS011;11084;52.482;9.108;2022-12-10T08:16:02;31.73;;;10.87;;
21843;SDS011;11084;52.482;9.108;2022-12-10T08:18:40;35.67;;;12.10;;
21843;SDS011;11084;52.482;9.108;2022-12-10T08:21:07;26.87;;;10.10;;
21843;SDS011;11084;52.482;9.108;2022-12-10T08:23:54;30.13;;;11.03;;
21843;SDS011;11084;52.482;9.108;2022-12-10T08:26:23;28.83;;;9.33;;
21843;SDS011;11084;52.482;9.108;2022-12-10T08:28:54;31.27;;;10.70;;
21843;SDS011;11084;52.482;9.108;2022-12-10T08:31:22;26.87;;;10.50;;
21843;SDS011;11084;52.482;9.108;2022-12-10T08:33:49;29.70;;;10.43;;
21843;SDS011;11084;52.482;9.108;2022-12-10T08:36:16;32.77;;;10.50;;
21843;SDS011;11084;52.482;9.108;2022-12-10T08:38:43;35.73;;;11.93;;
21843;SDS011;11084;52.482;9.108;2022-12-10T08:41:12;30.17;;;10.63;;
21843;SDS011;11084;52.482;9.108;2022-12-10T08:43:44;23.47;;;10.33;;
21843;SDS011;11084;52.482;9.108;2022-12-10T08:46:12;37.30;;;11.10;;
21843;SDS011;11084;52.482;9.108;2022-12-10T08:48:39;27.80;;;9.90;;
21843;SDS011;11084;52.482;9.108;2022-12-10T08:51:06;29.00;;;10.60;;
21843;SDS011;11084;52.482;9.108;2022-12-10T08:53:33;30.33;;;12.13;;
21843;SDS011;11084;52.482;9.108;2022-12-10T08:55:59;30.77;;;10.33;;
21843;SDS011;11084;52.482;9.108;2022-12-10T08:58:25;26.83;;;10.50;;
21843;SDS011;11084;52.482;9.108;2022-12-10T09:00:52;34.10;;;12.13;;
21843;SDS011;11084;52.482;9.108;2022-12-10T09:03:20;31.17;;;11.73;;
21843;SDS011;11084;52.482;9.108;2022-12-10T09:05:46;31.50;;;11.30;;
21843;SDS011;11084;52.482;9.108;2022-12-10T09:08:12;36.97;;;12.17;;
21843;SDS011;11084;52.482;9.108;2022-12-10T09:10:39;32.87;;;12.57;;
21843;SDS011;11084;52.482;9.108;2022-12-10T09:13:06;28.27;;;10.67;;
21843;SDS011;11084;52.482;9.108;2022-12-10T09:15:32;28.13;;;12.00;;
21843;SDS011;11084;52.482;9.108;2022-12-10T09:17:58;30.67;;;11.67;;
21843;SDS011;11084;52.482;9.108;2022-12-10T09:20:24;38.33;;;12.63;;
21843;SDS011;11084;52.482;9.108;2022-12-10T09:22:50;34.10;;;11.47;;
21843;SDS011;11084;52.482;9.108;2022-12-10T09:25:17;25.47;;;10.60;;
21843;SDS011;11084;52.482;9.108;2022-12-10T09:27:47;26.37;;;10.87;;
21843;SDS011;11084;52.482;9.108;2022-12-10T09:30:14;32.27;;;11.23;;
21843;SDS011;11084;52.482;9.108;2022-12-10T09:32:40;30.13;;;11.87;;
21843;SDS011;11084;52.482;9.108;2022-12-10T09:35:06;33.63;;;11.47;;
21843;SDS011;11084;52.482;9.108;2022-12-10T09:37:33;34.90;;;11.10;;
21843;SDS011;11084;52.482;9.108;2022-12-10T09:39:59;36.27;;;11.97;;
21843;SDS011;11084;52.482;9.108;2022-12-10T09:48:14;33.07;;;11.63;;
21843;SDS011;11084;52.482;9.108;2022-12-10T09:50:55;26.07;;;11.17;;
21843;SDS011;11084;52.482;9.108;2022-12-10T09:53:49;26.67;;;10.73;;
21843;SDS011;11084;52.482;9.108;2022-12-10T09:56:26;32.17;;;11.53;;
21843;SDS011;11084;52.482;9.108;2022-12-10T09:59:08;27.73;;;11.60;;
21843;SDS011;11084;52.482;9.108;2022-12-10T10:02:00;28.60;;;10.70;;
21843;SDS011;11084;52.482;9.108;2022-12-10T10:04:45;33.47;;;11.73;;
21843;SDS011;11084;52.482;9.108;2022-12-10T10:07:19;34.07;;;10.27;;
21843;SDS011;11084;52.482;9.108;2022-12-10T10:09:50;29.27;;;10.40;;
21843;SDS011;11084;52.482;9.108;2022-12-10T10:12:40;28.00;;;10.17;;
21843;SDS011;11084;52.482;9.108;2022-12-10T10:15:13;28.07;;;10.03;;
21843;SDS011;11084;52.482;9.108;2022-12-10T10:17:45;26.20;;;10.53;;
21843;SDS011;11084;52.482;9.108;2022-12-10T10:20:15;27.00;;;11.77;;
21843;SDS011;11084;52.482;9.108;2022-12-10T10:22:41;28.00;;;10.70;;
21843;SDS011;11084;52.482;9.108;2022-12-10T10:25:15;25.37;;;9.80;;
21843;SDS011;11084;52.482;9.108;2022-12-10T10:27:44;27.87;;;9.67;;
21843;SDS011;11084;52.482;9.108;2022-12-10T10:30:20;33.40;;;12.10;;
21843;SDS011;11084;52.482;9.108;2022-12-10T10:35:24;29.53;;;10.93;;
21843;SDS011;11084;52.482;9.108;2022-12-10T10:37:59;33.70;;;10.90;;
21843;SDS011;11084;52.482;9.108;2022-12-10T10:40:59;22.07;;;9.60;;
21843;SDS011;11084;52.482;9.108;2022-12-10T10:43:33;31.77;;;12.00;;
21843;SDS011;11084;52.482;9.108;2022-12-10T10:48:46;28.50;;;10.47;;
21843;SDS011;11084;52.482;9.108;2022-12-10T10:58:57;31.53;;;11.33;;
21843;SDS011;11084;52.482;9.108;2022-12-10T11:01:49;24.00;;;10.70;;
21843;SDS011;11084;52.482;9.108;2022-12-10T11:04:21;25.37;;;10.40;;
21843;SDS011;11084;52.482;9.108;2022-12-10T11:06:56;25.40;;;11.13;;
21843;SDS011;11084;52.482;9.108;2022-12-10T11:09:28;30.97;;;11.33;;
21843;SDS011;11084;52.482;9.108;2022-12-10T11:12:33;26.90;;;10.67;;
21843;SDS011;11084;52.482;9.108;2022-12-10T11:17:48;25.00;;;10.17;;
21843;SDS011;11084;52.482;9.108;2022-12-10T11:20:21;27.27;;;10.17;;
21843;SDS011;11084;52.482;9.108;2022-12-10T11:22:55;26.33;;;10.87;;
21843;SDS011;11084;52.482;9.108;2022-12-10T11:40:15;24.80;;;11.17;;
21843;SDS011;11084;52.482;9.108;2022-12-10T11:46:28;25.97;;;10.60;;
21843;SDS011;11084;52.482;9.108;2022-12-10T11:55:46;23.00;;;10.93;;
21843;SDS011;11084;52.482;9.108;2022-12-10T12:04:45;31.43;;;10.67;;
21843;SDS011;11084;52.482;9.108;2022-12-10T12:07:45;20.87;;;9.60;;
21843;SDS011;11084;52.482;9.108;2022-12-10T12:13:17;24.13;;;10.40;;
21843;SDS011;11084;52.482;9.108;2022-12-10T12:16:09;30.23;;;10.90;;
21843;SDS011;11084;52.482;9.108;2022-12-10T12:18:48;28.00;;;10.37;;
21843;SDS011;11084;52.482;9.108;2022-12-10T12:21:23;24.87;;;10.33;;
21843;SDS011;11084;52.482;9.108;2022-12-10T12:23:59;27.07;;;10.77;;
21843;SDS011;11084;52.482;9.108;2022-12-10T12:26:50;30.67;;;11.70;;
21843;SDS011;11084;52.482;9.108;2022-12-10T12:29:28;25.57;;;10.27;;
21843;SDS011;11084;52.482;9.108;2022-12-10T12:35:22;25.43;;;11.50;;
21843;SDS011;11084;52.482;9.108;2022-12-10T12:37:49;24.17;;;10.80;;
21843;SDS011;11084;52.482;9.108;2022-12-10T12:40:33;26.47;;;10.30;;
21843;SDS011;11084;52.482;9.108;2022-12-10T12:43:11;25.87;;;10.00;;
21843;SDS011;11084;52.482;9.108;2022-12-10T12:45:49;19.63;;;9.40;;
21843;SDS011;11084;52.482;9.108;2022-12-10T12:51:06;22.93;;;9.63;;
21843;SDS011;11084;52.482;9.108;2022-12-10T12:54:19;23.63;;;10.00;;
21843;SDS011;11084;52.482;9.108;2022-12-10T13:00:03;28.00;;;9.40;;
21843;SDS011;11084;52.482;9.108;2022-12-10T13:02:49;22.00;;;10.13;;
21843;SDS011;11084;52.482;9.108;2022-12-10T13:05:53;21.20;;;9.07;;
21843;SDS011;11084;52.482;9.108;2022-12-10T13:10:52;24.37;;;11.10;;
21843;SDS011;11084;52.482;9.108;2022-12-10T13:13:41;31.00;;;11.30;;
21843;SDS011;11084;52.482;9.108;2022-12-10T13:19:22;27.20;;;11.33;;
21843;SDS011;11084;52.482;9.108;2022-12-10T13:24:45;22.50;;;10.37;;
21843;SDS011;11084;52.482;9.108;2022-12-10T13:48:59;25.07;;;9.53;;
21843;SDS011;11084;52.482;9.108;2022-12-10T13:54:29;24.90;;;10.03;;
21843;SDS011;11084;52.482;9.108;2022-12-10T14:01:01;23.13;;;10.57;;
21843;SDS011;11084;52.482;9.108;2022-12-10T14:06:24;20.70;;;8.30;;
21843;SDS011;11084;52.482;9.108;2022-12-10T14:14:31;30.27;;;10.43;;
21843;SDS011;11084;52.482;9.108;2022-12-10T14:17:12;23.67;;;10.67;;
21843;SDS011;11084;52.482;9.108;2022-12-10T14:19:45;23.37;;;9.13;;
21843;SDS011;11084;52.482;9.108;2022-12-10T14:22:15;23.33;;;9.80;;
21843;SDS011;11084;52.482;9.108;2022-12-10T14:25:00;29.57;;;10.87;;
21843;SDS011;11084;52.482;9.108;2022-12-10T14:27:31;24.70;;;10.83;;
21843;SDS011;11084;52.482;9.108;2022-12-10T14:29:59;21.13;;;10.33;;
21843;SDS011;11084;52.482;9.108;2022-12-10T14:32:38;22.40;;;10.07;;
21843;SDS011;11084;52.482;9.108;2022-12-10T14:35:05;23.40;;;10.27;;
21843;SDS011;11084;52.482;9.108;2022-12-10T14:37:37;22.57;;;10.90;;
21843;SDS011;11084;52.482;9.108;2022-12-10T14:40:09;26.80;;;11.43;;
21843;SDS011;11084;52.482;9.108;2022-12-10T14:42:46;26.03;;;10.47;;
21843;SDS011;11084;52.482;9.108;2022-12-10T14:45:14;29.13;;;10.73;;
21843;SDS011;11084;52.482;9.108;2022-12-10T14:47:41;26.50;;;9.60;;
21843;SDS011;11084;52.482;9.108;2022-12-10T14:50:11;21.43;;;9.60;;
21843;SDS011;11084;52.482;9.108;2022-12-10T14:52:42;21.97;;;10.20;;
21843;SDS011;11084;52.482;9.108;2022-12-10T14:55:15;23.07;;;9.57;;
21843;SDS011;11084;52.482;9.108;2022-12-10T14:57:47;23.80;;;10.70;;
21843;SDS011;11084;52.482;9.108;2022-12-10T15:00:20;28.43;;;10.23;;
21843;SDS011;11084;52.482;9.108;2022-12-10T15:02:52;26.03;;;10.33;;
21843;SDS011;11084;52.482;9.108;2022-12-10T15:05:25;26.17;;;10.13;;
21843;SDS011;11084;52.482;9.108;2022-12-10T15:07:55;27.83;;;12.27;;
21843;SDS011;11084;52.482;9.108;2022-12-10T15:10:38;19.67;;;9.20;;
21843;SDS011;11084;52.482;9.108;2022-12-10T15:13:16;20.03;;;8.80;;
21843;SDS011;11084;52.482;9.108;2022-12-10T15:15:58;24.07;;;8.60;;
21843;SDS011;11084;52.482;9.108;2022-12-10T15:18:33;23.57;;;9.73;;
21843;SDS011;11084;52.482;9.108;2022-12-10T15:21:18;24.33;;;10.07;;
21843;SDS011;11084;52.482;9.108;2022-12-10T15:23:48;19.20;;;9.10;;
21843;SDS011;11084;52.482;9.108;2022-12-10T15:28:47;21.93;;;9.37;;
21843;SDS011;11084;52.482;9.108;2022-12-10T15:34:29;26.57;;;10.00;;
21843;SDS011;11084;52.482;9.108;2022-12-10T15:36:51;23.27;;;10.00;;
21843;SDS011;11084;52.482;9.108;2022-12-10T15:39:29;20.97;;;9.77;;
21843;SDS011;11084;52.482;9.108;2022-12-10T15:42:06;24.73;;;10.20;;
21843;SDS011;11084;52.482;9.108;2022-12-10T15:44:37;21.23;;;8.80;;
21843;SDS011;11084;52.482;9.108;2022-12-10T15:47:20;20.40;;;9.47;;
21843;SDS011;11084;52.482;9.108;2022-12-10T15:49:52;25.50;;;10.17;;
21843;SDS011;11084;52.482;9.108;2022-12-10T15:52:24;22.13;;;10.50;;
21843;SDS011;11084;52.482;9.108;2022-12-10T15:54:54;23.33;;;10.07;;
21843;SDS011;11084;52.482;9.108;2022-12-10T15:57:26;21.53;;;10.03;;
21843;SDS011;11084;52.482;9.108;2022-12-10T16:00:10;19.10;;;8.53;;
21843;SDS011;11084;52.482;9.108;2022-12-10T16:05:21;25.07;;;10.17;;
21843;SDS011;11084;52.482;9.108;2022-12-10T16:07:49;20.03;;;9.83;;
21843;SDS011;11084;52.482;9.108;2022-12-10T16:10:19;22.30;;;10.17;;
21843;SDS011;11084;52.482;9.108;2022-12-10T16:12:48;20.53;;;8.63;;
21843;SDS011;11084;52.482;9.108;2022-12-10T16:15:44;25.93;;;10.43;;
21843;SDS011;11084;52.482;9.108;2022-12-10T16:18:23;21.57;;;10.40;;
21843;SDS011;11084;52.482;9.108;2022-12-10T16:20:50;22.17;;;9.73;;
21843;SDS011;11084;52.482;9.108;2022-12-10T16:23:16;21.57;;;9.43;;
21843;SDS011;11084;52.482;9.108;2022-12-10T16:25:43;28.20;;;11.07;;
21843;SDS011;11084;52.482;9.108;2022-12-10T16:28:15;23.50;;;11.23;;
21843;SDS011;11084;52.482;9.108;2022-12-10T16:30:48;18.63;;;8.77;;
21843;SDS011;11084;52.482;9.108;2022-12-10T16:33:22;18.60;;;8.80;;
21843;SDS011;11084;52.482;9.108;2022-12-10T16:35:51;25.27;;;10.13;;
21843;SDS011;11084;52.482;9.108;2022-12-10T16:38:20;21.43;;;11.00;;
21843;SDS011;11084;52.482;9.108;2022-12-10T16:40:47;19.87;;;8.87;;
21843;SDS011;11084;52.482;9.108;2022-12-10T16:43:18;27.97;;;11.47;;
21843;SDS011;11084;52.482;9.108;2022-12-10T16:45:50;28.70;;;10.40;;
21843;SDS011;11084;52.482;9.108;2022-12-10T16:48:18;21.73;;;10.20;;
21843;SDS011;11084;52.482;9.108;2022-12-10T16:50:44;21.20;;;10.03;;
21843;SDS011;11084;52.482;9.108;2022-12-10T16:53:14;22.50;;;9.57;;
21843;SDS011;11084;52.482;9.108;2022-12-10T16:55:44;23.87;;;9.83;;
21843;SDS011;11084;52.482;9.108;2022-12-10T16:58:12;22.80;;;10.60;;
21843;SDS011;11084;52.482;9.108;2022-12-10T17:00:47;22.27;;;9.47;;
21843;SDS011;11084;52.482;9.108;2022-12-10T17:03:16;21.77;;;9.03;;
21843;SDS011;11084;52.482;9.108;2022-12-10T17:05:48;29.63;;;11.30;;
21843;SDS011;11084;52.482;9.108;2022-12-10T17:08:23;24.43;;;9.60;;
21843;SDS011;11084;52.482;9.108;2022-12-10T17:10:51;20.47;;;9.13;;
21843;SDS011;11084;52.482;9.108;2022-12-10T17:13:36;24.80;;;10.50;;